Time;durP1;ratioP1;P1;durP2;ratioP2;P2;SDS_P1;SDS_P2;PMS_P1;PMS_P2;Temp;Humidity;BMP_temperature;BMP_pressure;BME280_temperature;BME280_humidity;BME280_pressure;Samples;Min_cycle;Max_cycle;Signal;HPM_P1;HPM_P2
2021/01/27 00:03:05;;;;;;;8.23;6.43;;;;;;;1.68;58.42;99548.39;1610959;84;21213;-94
2021/01/27 00:05:52;;;;;;;9.87;7.80;;;;;;;1.64;58.77;99565.41;1668980;82;21457;-92
2021/01/27 00:08:49;;;;;;;8.13;7.33;;;;;;;1.61;58.90;99568.35;1657736;80;21164;-88
2021/01/27 00:11:40;;;;;;;8.40;7.27;;;;;;;1.63;58.89;99554.08;1673056;80;21098;-93
2021/01/27 00:14:28;;;;;;;;;;;;;;;1.61;58.98;99562.60;1676621;82;21096;-92
2021/01/27 00:17:16;;;;;;;12.35;6.85;;;;;;;1.59;59.48;99566.36;1645003;86;20211;-91
2021/01/27 00:20:02;;;;;;;9.60;7.53;;;;;;;1.59;59.48;99566.36;1653798;85;21245;-94
2021/01/27 00:22:30;;;;;;;10.13;8.13;;;;;;;1.57;59.20;99552.06;1650426;84;21101;-93
2021/01/27 00:25:22;;;;;;;10.77;7.17;;;;;;;1.58;59.26;99561.58;1684533;83;21164;-94
2021/01/27 00:27:56;;;;;;;10.33;8.00;;;;;;;1.60;59.04;99558.34;1669445;83;21361;-94
2021/01/27 00:30:26;;;;;;;13.60;9.43;;;;;;;1.54;58.96;99568.95;1685872;83;21200;-92
2021/01/27 00:32:54;;;;;;;10.70;7.20;;;;;;;1.53;59.07;99565.98;1681774;83;21168;-85
2021/01/27 00:35:25;;;;;;;11.63;8.37;;;;;;;1.49;59.18;99569.88;1672040;82;21174;-86
2021/01/27 00:37:54;;;;;;;10.73;7.53;;;;;;;1.47;59.20;99555.23;1666507;83;21205;-87
2021/01/27 00:40:21;;;;;;;10.57;7.67;;;;;;;1.43;59.30;99553.88;1689515;82;22526;-86
2021/01/27 00:42:50;;;;;;;10.83;8.00;;;;;;;1.44;59.36;99551.61;1651903;84;21217;-88
2021/01/27 00:45:17;;;;;;;11.80;8.63;;;;;;;1.41;59.41;99551.89;1678453;82;21332;-86
2021/01/27 00:47:46;;;;;;;11.33;8.67;;;;;;;1.39;59.43;99553.34;1690847;82;21233;-87
2021/01/27 00:50:15;;;;;;;10.10;7.47;;;;;;;1.38;59.35;99548.27;1673652;84;22405;-87
2021/01/27 00:52:43;;;;;;;11.60;8.83;;;;;;;1.38;59.20;99541.20;1689703;83;21212;-86
2021/01/27 00:55:16;;;;;;;12.10;8.20;;;;;;;1.35;59.41;99544.94;1679440;83;21365;-84
2021/01/27 00:57:44;;;;;;;9.20;7.10;;;;;;;1.37;59.38;99540.85;1624686;86;21536;-85
2021/01/27 01:00:32;;;;;;;8.73;7.17;;;;;;;1.40;59.48;99530.56;1618868;86;21254;-87
2021/01/27 01:03:01;;;;;;;9.53;7.20;;;;;;;1.42;59.38;99524.67;1611877;86;21393;-88
2021/01/27 01:05:32;;;;;;;8.67;7.50;;;;;;;1.43;59.30;99532.88;1630748;85;21275;-89
2021/01/27 01:07:59;;;;;;;12.40;9.77;;;;;;;1.41;59.25;99528.25;1633899;85;21356;-90
2021/01/27 01:10:36;;;;;;;14.07;9.27;;;;;;;1.40;59.22;99539.75;1624303;85;21349;-90
2021/01/27 01:13:09;;;;;;;10.40;7.80;;;;;;;1.36;59.49;99550.54;1638054;85;21186;-91
2021/01/27 01:15:36;;;;;;;12.40;10.27;;;;;;;1.34;59.59;99539.86;1612099;86;21679;-89
2021/01/27 01:18:04;;;;;;;15.43;10.50;;;;;;;1.32;59.70;99545.75;1628337;85;21365;-91
2021/01/27 01:20:31;;;;;;;10.97;9.50;;;;;;;1.31;59.78;99535.70;1647659;84;21205;-91
2021/01/27 01:23:00;;;;;;;11.43;8.53;;;;;;;1.30;59.81;99531.91;1631084;85;21134;-90
2021/01/27 01:25:29;;;;;;;12.27;8.40;;;;;;;1.33;59.82;99527.20;1621881;86;21514;-86
2021/01/27 01:27:56;;;;;;;16.20;9.73;;;;;;;1.30;60.03;99536.70;1608322;86;21338;-88
2021/01/27 01:30:31;;;;;;;10.37;8.23;;;;;;;1.31;60.04;99531.77;1593452;87;21200;-86
2021/01/27 01:33:03;;;;;;;13.23;10.10;;;;;;;1.27;60.17;99525.66;1647435;84;21356;-87
2021/01/27 01:35:30;;;;;;;12.07;9.37;;;;;;;1.27;60.33;99526.48;1624775;85;21778;-85
2021/01/27 01:37:58;;;;;;;15.40;10.40;;;;;;;1.22;60.44;99524.78;1616244;86;21301;-87
2021/01/27 01:40:30;;;;;;;16.67;13.60;;;;;;;1.22;60.59;99508.21;1650050;84;21214;-87
2021/01/27 01:43:13;;;;;;;17.43;14.00;;;;;;;1.17;60.72;99503.42;1629453;85;21221;-87
2021/01/27 01:45:46;;;;;;;18.23;13.00;;;;;;;1.19;60.70;99499.31;1620829;85;21262;-86
2021/01/27 01:48:40;;;;;;;14.63;11.20;;;;;;;1.17;60.90;99507.36;1641003;85;21229;-87
2021/01/27 01:51:33;;;;;;;12.43;9.57;;;;;;;1.24;60.84;99500.52;1634496;85;21945;-94
2021/01/27 02:01:15;;;;;;;17.57;13.63;;;;;;;1.22;60.96;99490.66;1647248;83;21220;-89
2021/01/27 02:03:46;;;;;;;19.10;14.73;;;;;;;1.21;61.02;99493.45;1671630;84;21201;-89
2021/01/27 02:06:14;;;;;;;15.53;11.40;;;;;;;1.25;61.04;99498.24;1662290;83;21828;-88
2021/01/27 02:08:45;;;;;;;14.77;11.17;;;;;;;1.25;60.93;99491.68;1679532;83;21751;-90
2021/01/27 02:11:15;;;;;;;12.83;10.40;;;;;;;1.29;60.72;99487.77;1735389;79;21163;-90
2021/01/27 02:14:12;;;;;;;13.30;10.33;;;;;;;1.31;60.64;99490.26;1753410;80;21171;-89
2021/01/27 02:17:08;;;;;;;12.83;9.83;;;;;;;1.36;60.62;99482.77;1726620;81;21326;-89
2021/01/27 02:19:50;;;;;;;12.77;10.67;;;;;;;1.38;60.59;99487.38;1696014;84;21376;-90
2021/01/27 02:22:59;;;;;;;13.10;9.80;;;;;;;1.40;60.65;99478.04;1680071;81;21136;-89
2021/01/27 02:26:01;;;;;;;12.33;9.40;;;;;;;1.39;60.64;99486.88;1672316;84;21218;-90
2021/01/27 02:28:52;;;;;;;16.13;11.50;;;;;;;1.42;60.63;99490.53;1687868;82;21657;-93
2021/01/27 02:32:14;;;;;;;13.73;10.93;;;;;;;1.39;60.58;99492.13;1685000;82;21200;-86
2021/01/27 02:34:53;;;;;;;11.73;9.67;;;;;;;1.41;60.65;99487.55;1687855;82;21133;-87
2021/01/27 02:37:30;;;;;;;15.67;10.93;;;;;;;1.43;60.84;99480.34;1702409;82;21208;-86
2021/01/27 02:40:00;;;;;;;;;;;;;;;1.41;60.62;99483.61;1715861;81;21210;-88
2021/01/27 02:42:39;;;;;;;12.30;9.10;;;;;;;1.39;60.75;99478.50;1720995;81;20304;-86
2021/01/27 02:45:25;;;;;;;12.87;10.00;;;;;;;1.31;60.95;99487.14;1660053;83;21171;-86
2021/01/27 02:48:10;;;;;;;14.30;10.97;;;;;;;1.06;61.06;99445.89;1698121;82;21206;-89
2021/01/27 02:50:53;;;;;;;14.17;11.30;;;;;;;1.32;61.04;99484.86;1696301;82;21210;-91
2021/01/27 02:53:33;;;;;;;15.53;11.17;;;;;;;1.35;60.95;99485.86;1699608;81;22140;-94
2021/01/27 02:56:11;;;;;;;14.43;10.83;;;;;;;1.38;60.94;99487.38;1724228;81;21130;-91
2021/01/27 02:58:45;;;;;;;12.63;10.27;;;;;;;1.39;60.87;99494.76;1681500;82;22301;-92
2021/01/27 03:01:38;;;;;;;14.13;10.70;;;;;;;1.38;60.85;99495.25;1680782;82;21589;-92
2021/01/27 03:04:12;;;;;;;12.70;9.70;;;;;;;1.33;60.99;99493.55;1684358;83;21557;-92
2021/01/27 03:06:39;;;;;;;15.97;11.77;;;;;;;1.31;61.23;99487.14;1703242;82;21795;-91
2021/01/27 03:09:12;;;;;;;15.60;11.20;;;;;;;1.27;61.12;99484.97;1677335;82;21190;-91
2021/01/27 03:11:40;;;;;;;13.17;10.53;;;;;;;1.26;61.21;99489.41;1700919;82;21122;-93
2021/01/27 03:14:08;;;;;;;13.27;10.40;;;;;;;1.30;61.28;99486.81;1677183;83;21187;-90
2021/01/27 03:16:45;;;;;;;13.23;10.17;;;;;;;1.31;61.24;99484.51;1697256;82;21214;-89
2021/01/27 03:19:21;;;;;;;16.17;11.37;;;;;;;1.30;61.29;99490.75;1661670;83;21258;-88
2021/01/27 03:21:54;;;;;;;12.80;10.13;;;;;;;1.33;61.25;99486.50;1712743;81;21243;-93
2021/01/27 03:24:22;;;;;;;15.40;11.23;;;;;;;1.31;61.32;99478.44;1706113;81;21123;-86
2021/01/27 03:27:22;;;;;;;13.23;10.03;;;;;;;1.34;61.18;99478.97;1694789;82;21269;-88
2021/01/27 03:29:56;;;;;;;15.73;11.13;;;;;;;1.33;61.35;99475.17;1698113;82;21426;-91
2021/01/27 03:32:54;;;;;;;11.03;8.97;;;;;;;1.36;61.22;99474.89;1702550;81;21186;-93
2021/01/27 03:35:50;;;;;;;14.83;9.57;;;;;;;1.32;61.41;99462.55;1699624;82;21065;-92
2021/01/27 03:38:35;;;;;;;13.47;9.37;;;;;;;1.29;61.39;99456.77;1608429;86;21194;-90
2021/01/27 03:41:16;;;;;;;15.63;12.53;;;;;;;1.23;61.66;99454.75;1693312;82;21311;-91
2021/01/27 03:44:04;;;;;;;12.40;10.30;;;;;;;1.16;61.78;99454.01;1693331;82;21925;-89
2021/01/27 03:46:52;;;;;;;11.73;9.33;;;;;;;1.14;61.94;99459.08;1708587;82;21185;-91
2021/01/27 03:49:26;;;;;;;17.33;13.13;;;;;;;1.10;62.10;99457.73;1680679;82;21336;-91
2021/01/27 03:52:38;;;;;;;17.07;12.77;;;;;;;1.03;62.11;99454.05;1693833;82;21257;-92
2021/01/27 03:55:16;;;;;;;18.00;11.83;;;;;;;0.95;62.33;99463.98;1693633;81;21245;-89
2021/01/27 03:57:48;;;;;;;17.70;12.13;;;;;;;0.94;62.60;99467.56;1695653;82;21250;-90
2021/01/27 04:00:20;;;;;;;18.40;13.47;;;;;;;0.97;62.71;99469.41;1701142;82;21677;-91
2021/01/27 04:03:12;;;;;;;19.67;15.20;;;;;;;1.04;62.57;99468.34;1687443;82;21639;-89
2021/01/27 04:05:39;;;;;;;19.03;14.13;;;;;;;1.07;62.58;99472.45;1696379;82;21171;-91
2021/01/27 04:08:10;;;;;;;20.30;13.87;;;;;;;1.13;62.44;99475.33;1716775;82;21221;-91
2021/01/27 04:10:59;;;;;;;21.40;14.80;;;;;;;1.14;62.37;99480.08;1675451;82;21344;-90
2021/01/27 04:13:30;;;;;;;20.43;13.40;;;;;;;1.19;62.29;99477.00;1691342;81;21591;-91
2021/01/27 04:15:57;;;;;;;18.57;12.00;;;;;;;1.21;62.33;99473.77;1713343;79;21152;-91
2021/01/27 04:18:26;;;;;;;20.27;13.57;;;;;;;1.25;62.17;99474.61;1680046;83;21156;-89
2021/01/27 04:20:54;;;;;;;18.10;12.33;;;;;;;1.24;62.20;99478.20;1707997;81;21214;-89
2021/01/27 04:23:25;;;;;;;16.03;12.97;;;;;;;1.25;62.20;99479.05;1701575;82;21646;-93
2021/01/27 04:26:09;;;;;;;16.47;12.23;;;;;;;1.23;62.39;99483.13;1690756;82;21176;-89
2021/01/27 04:28:37;;;;;;;18.83;11.33;;;;;;;1.26;62.19;99484.16;1694653;82;21204;-89
2021/01/27 04:31:17;;;;;;;16.70;14.13;;;;;;;1.24;62.32;99486.57;1691591;82;21220;-89
2021/01/27 04:33:47;;;;;;;18.57;13.00;;;;;;;1.26;62.28;99489.41;1685638;82;21199;-88
2021/01/27 04:36:14;;;;;;;19.43;12.73;;;;;;;1.22;62.49;99485.90;1682730;82;21165;-87
2021/01/27 04:38:41;;;;;;;22.00;14.03;;;;;;;1.23;62.53;99485.75;1690914;82;21151;-88
2021/01/27 04:41:10;;;;;;;23.00;15.30;;;;;;;1.19;62.63;99493.59;1689708;82;21208;-89
2021/01/27 04:43:48;;;;;;;25.53;16.60;;;;;;;1.19;62.66;99488.81;1685346;82;21244;-89
2021/01/27 04:46:35;;;;;;;27.43;17.80;;;;;;;1.17;62.76;99491.61;1665865;84;21311;-88
2021/01/27 04:49:23;;;;;;;33.88;18.75;;;;;;;1.21;62.73;99492.14;1666022;84;21235;-90
2021/01/27 04:52:01;;;;;;;28.87;18.62;;;;;;;1.21;62.73;99492.14;1659235;83;21227;-89
2021/01/27 04:55:09;;;;;;;27.27;16.83;;;;;;;1.25;62.66;99489.55;1662980;84;21192;-87
2021/01/27 04:57:51;;;;;;;25.50;15.77;;;;;;;1.23;62.63;99488.38;1664084;84;21192;-89
2021/01/27 05:00:45;;;;;;;25.40;16.53;;;;;;;1.28;62.47;99494.48;1648436;82;21255;-89
2021/01/27 05:03:44;;;;;;;27.03;17.70;;;;;;;1.26;62.47;99489.41;1636908;85;21199;-88
2021/01/27 05:06:16;;;;;;;24.00;15.27;;;;;;;1.26;62.54;99488.09;1696400;81;21166;-88
2021/01/27 05:08:57;;;;;;;21.70;15.40;;;;;;;1.24;62.73;99485.26;1682870;81;21286;-88
2021/01/27 05:11:24;;;;;;;18.17;13.23;;;;;;;1.27;62.58;99491.53;1674397;80;21162;-89
2021/01/27 05:13:53;;;;;;;19.17;13.47;;;;;;;1.23;62.64;99492.31;1709806;77;21653;-90
2021/01/27 05:16:23;;;;;;;22.53;15.13;;;;;;;1.28;62.66;99491.86;1689440;82;21169;-88
2021/01/27 05:18:52;;;;;;;23.77;16.57;;;;;;;1.25;62.76;99495.61;1681349;83;21166;-89
2021/01/27 05:21:40;;;;;;;25.67;17.30;;;;;;;1.23;62.74;99496.25;1657994;84;21636;-90
2021/01/27 05:24:08;;;;;;;26.02;16.57;;;;;;;1.21;62.93;99500.02;1691684;82;21635;-88
2021/01/27 05:26:49;;;;;;;25.63;17.00;;;;;;;1.22;62.88;99504.27;1708665;82;21176;-88
2021/01/27 05:29:33;;;;;;;25.37;18.63;;;;;;;1.18;62.97;99511.62;1651407;84;21232;-89
2021/01/27 05:32:08;;;;;;;31.00;21.47;;;;;;;1.21;63.05;99515.77;1714050;81;21493;-90
2021/01/27 05:34:51;;;;;;;29.40;20.63;;;;;;;1.16;63.07;99518.32;1718454;81;21596;-89
2021/01/27 05:37:31;;;;;;;27.87;19.83;;;;;;;1.21;63.13;99519.20;1725787;80;21694;-88
2021/01/27 05:40:33;;;;;;;37.37;27.77;;;;;;;1.19;63.24;99522.94;1720822;82;21782;-87
2021/01/27 05:43:16;;;;;;;34.40;25.27;;;;;;;0.47;63.44;99406.89;1721715;80;21256;-89
2021/01/27 05:45:48;;;;;;;35.03;22.93;;;;;;;1.21;63.30;99532.34;1729626;81;21732;-91
2021/01/27 05:48:26;;;;;;;27.77;21.10;;;;;;;1.18;63.15;99535.73;1727997;81;21212;-89
2021/01/27 05:51:10;;;;;;;35.73;23.00;;;;;;;1.10;63.45;99531.23;1719207;81;21333;-87
2021/01/27 05:53:40;;;;;;;35.13;25.20;;;;;;;1.12;63.52;99533.22;1712795;81;21228;-89
2021/01/27 05:56:22;;;;;;;38.73;26.10;;;;;;;1.10;63.69;99536.47;1755427;79;21576;-91
2021/01/27 05:59:03;;;;;;;29.77;21.10;;;;;;;1.09;63.80;99533.50;1757755;79;22356;-88
2021/01/27 06:01:41;;;;;;;25.13;18.60;;;;;;;1.01;63.94;99530.79;1774045;79;21141;-88
2021/01/27 06:04:19;;;;;;;24.83;17.80;;;;;;;1.01;63.95;99533.41;1716506;81;21711;-88
2021/01/27 06:06:52;;;;;;;29.47;20.27;;;;;;;0.98;64.20;99535.86;1722994;81;21200;-90
2021/01/27 06:09:40;;;;;;;25.13;18.30;;;;;;;1.01;64.26;99530.30;1702193;82;21212;-89
2021/01/27 06:12:20;;;;;;;25.70;17.03;;;;;;;1.01;64.46;99532.10;1684911;84;21112;-90
2021/01/27 06:15:05;;;;;;;29.87;21.70;;;;;;;1.03;64.55;99529.66;1721463;82;21180;-93
2021/01/27 06:17:48;;;;;;;29.57;21.50;;;;;;;1.02;64.53;99529.80;1704716;82;21350;-93
2021/01/27 06:20:33;;;;;;;30.93;21.90;;;;;;;1.11;64.38;99533.70;1666159;82;21353;-90
2021/01/27 06:23:42;;;;;;;56.63;37.47;;;;;;;1.13;64.40;99537.02;1704293;83;21149;-91
2021/01/27 06:26:30;;;;;;;47.93;30.77;;;;;;;1.19;64.31;99544.78;1700706;83;21248;-88
2021/01/27 06:29:36;;;;;;;;;;;;;;;1.18;64.34;99548.37;1692856;83;21113;-87
2021/01/27 06:32:33;;;;;;;42.60;26.70;;;;;;;1.18;64.49;99548.86;1711889;83;20511;-92
2021/01/27 06:35:30;;;;;;;;;;;;;;;1.12;64.70;99547.16;1686864;81;21180;-90
2021/01/27 06:38:21;;;;;;;29.43;19.33;;;;;;;1.14;64.63;99552.27;1684594;82;20401;-94
2021/01/27 06:41:26;;;;;;;27.13;16.50;;;;;;;1.16;64.67;99547.20;1681006;83;21192;-87
2021/01/27 06:44:16;;;;;;;22.53;16.73;;;;;;;1.15;64.62;99549.50;1690787;84;21400;-90
2021/01/27 06:47:22;;;;;;;24.80;16.83;;;;;;;1.17;64.61;99534.92;1675534;83;21211;-90
2021/01/27 06:50:04;;;;;;;20.17;15.20;;;;;;;1.19;64.67;99542.63;1674161;84;21290;-90
2021/01/27 06:52:54;;;;;;;21.27;17.00;;;;;;;1.25;64.42;99546.81;1686329;83;21172;-92
2021/01/27 06:55:56;;;;;;;21.13;15.40;;;;;;;1.27;64.54;99546.67;1670253;83;21149;-87
2021/01/27 06:58:54;;;;;;;20.70;14.00;;;;;;;1.34;64.32;99543.30;1709674;81;21184;-87
2021/01/27 07:02:00;;;;;;;20.60;15.43;;;;;;;1.39;64.26;99539.40;1720824;81;21147;-89
2021/01/27 07:04:52;;;;;;;22.90;15.63;;;;;;;1.44;64.02;99530.59;1713423;81;21342;-90
2021/01/27 07:07:42;;;;;;;22.27;16.57;;;;;;;1.46;64.08;99533.40;1724829;80;21311;-87
2021/01/27 07:10:33;;;;;;;23.83;18.23;;;;;;;1.48;64.04;99524.06;1794877;79;23551;-89
2021/01/27 07:13:42;;;;;;;25.40;15.87;;;;;;;1.46;63.98;99530.77;1745921;78;21096;-87
2021/01/27 07:16:16;;;;;;;24.37;16.10;;;;;;;1.48;64.00;99528.00;1731540;81;21120;-90
2021/01/27 07:19:08;;;;;;;23.03;14.37;;;;;;;1.50;63.91;99526.05;1726734;81;21207;-89
2021/01/27 07:21:58;;;;;;;25.13;16.93;;;;;;;1.44;64.04;99533.22;1707038;83;21280;-91
2021/01/27 07:24:38;;;;;;;26.20;19.13;;;;;;;1.41;64.04;99525.13;1678878;83;21555;-89
2021/01/27 07:27:18;;;;;;;27.00;17.77;;;;;;;1.41;64.16;99538.27;1683947;83;21248;-90
2021/01/27 07:29:57;;;;;;;30.57;20.77;;;;;;;1.47;64.14;99538.16;1663396;84;21668;-87
2021/01/27 07:32:54;;;;;;;26.43;18.37;;;;;;;1.48;64.24;99538.51;1663450;84;21213;-90
2021/01/27 07:35:32;;;;;;;26.10;19.77;;;;;;;1.57;64.12;99535.48;1677871;83;21270;-93
2021/01/27 07:38:09;;;;;;;25.53;19.10;;;;;;;1.57;64.05;99536.80;1699011;83;21777;-87
2021/01/27 07:40:47;;;;;;;24.83;17.97;;;;;;;1.61;63.83;99540.77;1711493;83;21329;-87
2021/01/27 07:43:24;;;;;;;25.43;16.63;;;;;;;1.58;64.00;99536.63;1699246;83;21322;-89
2021/01/27 07:45:54;;;;;;;23.63;17.67;;;;;;;1.61;64.01;99533.70;1662309;83;21082;-89
2021/01/27 07:48:40;;;;;;;24.63;18.03;;;;;;;1.60;63.81;99531.23;1614066;86;21176;-90
2021/01/27 07:51:28;;;;;;;23.33;18.57;;;;;;;1.61;63.98;99527.64;1666187;81;21249;-89
2021/01/27 07:54:16;;;;;;;22.93;18.47;;;;;;;1.61;64.20;99525.01;1663013;85;21359;-90
2021/01/27 07:57:06;;;;;;;23.93;16.27;;;;;;;1.67;64.06;99530.97;1665230;83;21111;-88
2021/01/27 07:59:54;;;;;;;28.27;18.17;;;;;;;1.65;64.12;99527.67;1662726;84;21242;-83
2021/01/27 08:02:24;;;;;;;30.05;21.17;;;;;;;1.70;64.00;99526.73;1695751;83;21088;-90
2021/01/27 08:04:56;;;;;;;24.53;18.67;;;;;;;1.72;63.95;99534.80;1681212;84;21175;-88
2021/01/27 08:07:32;;;;;;;29.03;20.80;;;;;;;1.77;63.83;99530.88;1677629;84;21220;-86
2021/01/27 08:10:27;;;;;;;25.60;19.27;;;;;;;1.74;63.91;99532.02;1705963;83;21179;-89
2021/01/27 08:13:00;;;;;;;28.27;20.63;;;;;;;1.80;63.79;99532.72;1629048;85;21119;-90
2021/01/27 08:15:34;;;;;;;28.63;19.23;;;;;;;1.82;63.59;99535.20;1656285;85;21193;-92
2021/01/27 08:18:17;;;;;;;32.07;19.83;;;;;;;1.83;63.57;99535.06;1648309;86;21135;-89
2021/01/27 08:20:46;;;;;;;24.57;18.00;;;;;;;1.84;63.53;99531.93;1677140;84;21376;-88
2021/01/27 08:23:26;;;;;;;24.23;17.43;;;;;;;1.90;63.39;99531.31;1655089;84;21090;-88
2021/01/27 08:26:03;;;;;;;22.50;16.37;;;;;;;1.91;63.31;99535.61;1654298;84;21204;-92
2021/01/27 08:28:41;;;;;;;19.85;14.80;;;;;;;1.95;63.16;99531.69;1668627;84;21195;-90
2021/01/27 08:31:17;;;;;;;25.37;16.67;;;;;;;1.95;63.13;99531.69;1676680;84;21756;-89
2021/01/27 08:36:36;;;;;;;22.43;15.43;;;;;;;2.06;63.02;99531.45;1770133;79;23132;-88
2021/01/27 08:39:11;;;;;;;20.80;15.13;;;;;;;2.02;62.56;99534.05;1734175;82;21141;-88
2021/01/27 08:42:05;;;;;;;22.53;14.73;;;;;;;1.97;62.46;99537.63;1728250;81;21157;-87
2021/01/27 08:44:37;;;;;;;22.97;16.57;;;;;;;1.94;62.66;99530.88;1706877;81;21116;-88
2021/01/27 08:47:20;;;;;;;24.27;16.40;;;;;;;1.94;62.27;99523.45;1687652;84;21171;-87
2021/01/27 08:49:54;;;;;;;20.57;14.00;;;;;;;1.92;62.39;99524.10;1686561;83;21210;-88
2021/01/27 08:53:14;;;;;;;18.70;12.80;;;;;;;1.98;62.25;99524.83;1835481;77;28125;-89
2021/01/27 08:55:52;;;;;;;19.67;13.60;;;;;;;1.99;62.27;99529.59;1795439;78;21490;-92
2021/01/27 08:58:29;;;;;;;20.23;13.77;;;;;;;2.00;61.98;99521.56;1790145;79;21342;-89
2021/01/27 09:01:07;;;;;;;17.27;12.80;;;;;;;2.00;62.21;99526.81;1742699;80;21103;-89
2021/01/27 09:03:49;;;;;;;17.20;13.57;;;;;;;2.03;62.08;99525.67;1727855;80;21199;-89
2021/01/27 09:06:44;;;;;;;19.80;15.33;;;;;;;2.02;62.12;99533.23;1756741;81;21346;-91
2021/01/27 09:09:26;;;;;;;23.10;16.43;;;;;;;2.06;62.16;99528.83;1739366;80;21211;-90
2021/01/27 09:12:02;;;;;;;20.13;14.93;;;;;;;2.05;62.21;99523.22;1742275;80;21125;-90
2021/01/27 09:14:29;;;;;;;18.13;14.13;;;;;;;2.12;62.22;99513.74;1716014;82;21191;-90
2021/01/27 09:16:57;;;;;;;18.63;14.33;;;;;;;2.14;62.10;99520.98;1712579;83;21320;-91
2021/01/27 09:19:25;;;;;;;21.13;14.63;;;;;;;2.18;61.58;99514.93;1718887;82;21196;-90
2021/01/27 09:22:21;;;;;;;18.83;13.90;;;;;;;2.20;61.57;99523.98;1706073;82;21271;-89
2021/01/27 09:24:52;;;;;;;17.60;12.43;;;;;;;2.22;61.49;99517.58;1686677;84;21239;-92
2021/01/27 09:27:30;;;;;;;15.90;11.50;;;;;;;2.24;60.92;99518.28;1707834;83;21179;-91
2021/01/27 09:30:07;;;;;;;19.23;12.50;;;;;;;2.22;60.92;99517.58;1704133;84;21358;-89
2021/01/27 09:32:38;;;;;;;16.80;11.10;;;;;;;2.24;60.75;99518.75;1682262;84;21211;-90
2021/01/27 09:35:11;;;;;;;16.23;12.43;;;;;;;2.24;60.93;99516.97;1672432;84;21279;-91
2021/01/27 09:37:51;;;;;;;15.23;11.33;;;;;;;2.30;60.67;99523.41;1702355;83;21199;-89
2021/01/27 09:40:27;;;;;;;;;;;;;;;2.33;60.54;99530.97;1682133;84;21195;-88
2021/01/27 09:42:57;;;;;;;15.10;11.57;;;;;;;2.33;60.40;99524.39;1704310;84;20173;-90
2021/01/27 09:45:30;;;;;;;15.67;11.67;;;;;;;2.22;60.54;99514.13;1679861;84;21769;-90
2021/01/27 09:47:58;;;;;;;22.67;12.30;;;;;;;2.16;60.30;99516.89;1659092;84;21199;-90
2021/01/27 09:50:27;;;;;;;14.60;10.37;;;;;;;2.09;60.46;99518.02;1648957;85;21244;-89
2021/01/27 09:52:57;;;;;;;17.13;12.40;;;;;;;2.11;60.35;99518.68;1684105;84;21177;-89
2021/01/27 09:55:25;;;;;;;17.47;12.20;;;;;;;1.47;60.31;99410.78;1662501;84;21167;-90
2021/01/27 09:57:52;;;;;;;14.63;10.53;;;;;;;2.17;60.21;99520.34;1663708;84;21254;-90
2021/01/27 10:00:37;;;;;;;17.03;12.03;;;;;;;2.20;60.00;99514.28;1672728;84;21612;-92
2021/01/27 10:03:23;;;;;;;13.60;10.77;;;;;;;2.18;59.67;99512.30;1644505;85;21679;-91
2021/01/27 10:06:26;;;;;;;15.13;11.23;;;;;;;2.09;59.90;99500.92;1660846;85;21688;-91
2021/01/27 10:09:06;;;;;;;11.17;8.20;;;;;;;2.07;59.18;99496.31;1655519;84;21736;-92
2021/01/27 10:12:26;;;;;;;14.67;9.40;;;;;;;2.06;59.29;99499.91;1784492;78;28189;-91
2021/01/27 10:15:12;;;;;;;17.00;10.37;;;;;;;2.05;59.13;99499.56;1691169;81;21192;-90
2021/01/27 10:18:20;;;;;;;11.75;8.93;;;;;;;2.04;59.05;99496.61;1715678;80;21178;-89
2021/01/27 10:21:04;;;;;;;13.67;10.63;;;;;;;2.08;59.10;99494.50;1712318;81;21188;-89
2021/01/27 10:23:52;;;;;;;14.13;9.77;;;;;;;2.11;59.12;99476.62;1756676;79;24045;-91
2021/01/27 10:26:38;;;;;;;14.00;10.80;;;;;;;2.12;58.63;99482.69;1724985;81;21243;-88
2021/01/27 10:29:23;;;;;;;15.00;10.90;;;;;;;1.81;58.55;99442.42;1701541;81;21639;-91
2021/01/27 10:31:57;;;;;;;11.70;9.37;;;;;;;2.12;58.23;99484.00;1652990;84;21355;-89
2021/01/27 10:34:43;;;;;;;12.47;9.80;;;;;;;2.07;58.28;99484.95;1679508;82;21227;-93
2021/01/27 10:37:37;;;;;;;11.67;8.30;;;;;;;2.06;58.27;99486.77;1687079;83;21186;-91
2021/01/27 10:40:13;;;;;;;13.47;10.20;;;;;;;2.06;58.48;99489.39;1685983;85;21238;-89
2021/01/27 10:42:50;;;;;;;12.77;8.77;;;;;;;2.11;58.52;99481.88;1681253;83;21250;-87
2021/01/27 10:45:32;;;;;;;14.60;10.17;;;;;;;2.11;58.01;99484.50;1672759;83;21590;-91
2021/01/27 10:48:14;;;;;;;11.33;8.30;;;;;;;2.10;58.06;99477.58;1652688;85;21214;-88
2021/01/27 10:51:01;;;;;;;8.20;6.60;;;;;;;2.09;57.31;99477.27;1654009;86;21187;-89
2021/01/27 10:53:42;;;;;;;8.10;5.67;;;;;;;2.06;56.55;99477.56;1653426;85;21198;-92
2021/01/27 10:56:12;;;;;;;8.53;5.40;;;;;;;1.99;56.62;99479.65;1648064;85;21134;-90
2021/01/27 10:58:43;;;;;;;5.20;4.10;;;;;;;2.04;56.38;99479.52;1667379;85;21345;-89
2021/01/27 11:01:10;;;;;;;7.10;5.63;;;;;;;1.98;55.77;99470.95;1679334;84;21093;-90
2021/01/27 11:03:39;;;;;;;5.90;5.23;;;;;;;2.04;56.02;99470.82;1662206;86;21124;-91
2021/01/27 11:06:10;;;;;;;5.93;4.37;;;;;;;1.98;55.76;99462.22;1657417;85;21325;-90
2021/01/27 11:11:18;;;;;;;5.33;4.23;;;;;;;1.89;56.02;99462.17;1735091;74;23054;-90
2021/01/27 11:13:50;;;;;;;8.10;5.87;;;;;;;1.82;56.18;99462.94;1593781;88;21181;-92
2021/01/27 11:16:16;;;;;;;7.20;4.83;;;;;;;1.75;56.43;99465.34;1578929;88;21673;-90
2021/01/27 11:18:44;;;;;;;7.27;5.20;;;;;;;1.74;56.55;99466.34;1590820;88;21943;-91
2021/01/27 11:21:12;;;;;;;6.57;5.17;;;;;;;1.72;56.88;99459.91;1579898;88;21252;-90
2021/01/27 11:23:41;;;;;;;9.73;5.67;;;;;;;1.70;56.83;99461.88;1602905;87;21636;-91
2021/01/27 11:26:08;;;;;;;8.60;5.93;;;;;;;1.64;57.47;99455.92;1618162;87;21765;-92
2021/01/27 11:28:36;;;;;;;6.93;4.60;;;;;;;1.71;57.54;99464.00;1622847;86;21377;-93
2021/01/27 11:31:08;;;;;;;8.47;6.17;;;;;;;1.71;57.89;99464.00;1623577;87;21231;-92
2021/01/27 11:33:35;;;;;;;6.33;5.27;;;;;;;1.73;57.58;99460.27;1622046;86;21243;-92
2021/01/27 11:36:11;;;;;;;8.87;6.07;;;;;;;1.70;57.81;99453.98;1627510;86;21362;-91
2021/01/27 11:38:52;;;;;;;7.95;6.45;;;;;;;1.73;58.21;99458.95;1600086;88;21935;-90
2021/01/27 11:41:31;;;;;;;8.63;6.43;;;;;;;1.71;58.05;99450.86;1618892;86;21185;-92
2021/01/27 11:43:59;;;;;;;8.63;6.93;;;;;;;1.74;58.03;99455.33;1626676;86;21195;-90
2021/01/27 11:46:26;;;;;;;10.87;7.97;;;;;;;1.73;58.17;99455.01;1583489;86;21137;-90
2021/01/27 11:52:07;;;;;;;9.97;7.03;;;;;;;1.79;58.39;99457.98;1839470;76;24792;-91
2021/01/27 11:54:39;;;;;;;10.80;7.70;;;;;;;1.76;58.40;99464.38;1754561;80;21239;-89
2021/01/27 11:57:08;;;;;;;8.53;6.83;;;;;;;1.78;58.45;99461.61;1732923;80;21097;-89
2021/01/27 11:59:41;;;;;;;11.87;7.90;;;;;;;1.74;58.61;99450.57;1763837;80;21285;-90
2021/01/27 12:02:36;;;;;;;8.07;5.67;;;;;;;1.71;58.47;99448.23;1749630;80;21194;-90
2021/01/27 12:05:06;;;;;;;9.23;6.87;;;;;;;1.71;58.46;99451.72;1708607;82;21196;-92
2021/01/27 12:07:34;;;;;;;10.50;6.13;;;;;;;1.69;58.20;99452.83;1691291;82;21195;-92
2021/01/27 12:10:01;;;;;;;10.60;6.10;;;;;;;1.68;57.79;99445.94;1689579;83;21341;-91
2021/01/27 12:12:42;;;;;;;7.87;7.07;;;;;;;1.59;57.79;99447.66;1700744;81;21253;-93
2021/01/27 12:15:43;;;;;;;8.10;6.30;;;;;;;1.60;58.08;99449.33;1706396;81;21418;-92
2021/01/27 12:18:11;;;;;;;13.03;7.37;;;;;;;1.61;58.25;99450.96;1711848;81;21183;-92
2021/01/27 12:21:04;;;;;;;9.33;7.67;;;;;;;1.60;58.29;99449.33;1725612;81;21194;-91
2021/01/27 12:23:32;;;;;;;10.97;6.63;;;;;;;1.53;58.47;99447.78;1715841;81;21191;-90
2021/01/27 12:25:59;;;;;;;11.47;6.57;;;;;;;1.55;58.91;99444.52;1727616;81;21195;-89
2021/01/27 12:28:26;;;;;;;9.83;7.63;;;;;;;1.56;58.77;99445.33;1714892;81;21317;-92
2021/01/27 12:31:27;;;;;;;11.77;7.47;;;;;;;1.68;58.71;99438.05;1775785;79;23280;-88
2021/01/27 12:34:07;;;;;;;9.27;6.87;;;;;;;1.64;58.74;99440.16;1784175;79;21106;-89
2021/01/27 12:36:38;;;;;;;;;;;;;;;1.69;58.65;99444.94;1746868;80;21712;-91
2021/01/27 12:39:07;;;;;;;10.60;7.33;;;;;;;1.70;58.48;99443.98;1773146;80;20299;-93
2021/01/27 12:41:39;;;;;;;7.80;6.10;;;;;;;1.71;58.53;99446.92;1772193;79;21187;-89
2021/01/27 12:44:06;;;;;;;7.80;7.00;;;;;;;1.69;58.37;99440.50;1762592;79;21171;-91
2021/01/27 12:46:39;;;;;;;6.60;5.23;;;;;;;1.69;58.27;99431.31;1712098;82;21202;-88